sensor_id;sensor_type;location;lat;lon;timestamp;pressure;altitude;pressure_sealevel;temperature;humidity
16016;BME280;8112;53.592;10.184;2023-04-10T00:00:34;102220.91;;;6.31;100.00
16016;BME280;8112;53.592;10.184;2023-04-10T00:05:37;102227.16;;;6.22;100.00
16016;BME280;8112;53.592;10.184;2023-04-10T00:10:39;102226.31;;;6.21;100.00
16016;BME280;8112;53.592;10.184;2023-04-10T00:15:42;102211.50;;;6.19;100.00
16016;BME280;8112;53.592;10.184;2023-04-10T00:20:43;102204.59;;;6.16;100.00
16016;BME280;8112;53.592;10.184;2023-04-10T00:25:46;102193.41;;;6.05;100.00
16016;BME280;8112;53.592;10.184;2023-04-10T00:30:49;102200.38;;;6.06;100.00
16016;BME280;8112;53.592;10.184;2023-04-10T00:35:51;102197.81;;;6.04;100.00
16016;BME280;8112;53.592;10.184;2023-04-10T00:40:53;102192.56;;;6.04;100.00
16016;BME280;8112;53.592;10.184;2023-04-10T00:45:57;102192.63;;;5.98;100.00
16016;BME280;8112;53.592;10.184;2023-04-10T00:50:59;102183.94;;;5.96;100.00
16016;BME280;8112;53.592;10.184;2023-04-10T00:56:01;102179.59;;;5.95;100.00
16016;BME280;8112;53.592;10.184;2023-04-10T01:01:04;102188.31;;;5.95;100.00
16016;BME280;8112;53.592;10.184;2023-04-10T01:06:32;102183.94;;;5.94;100.00
16016;BME280;8112;53.592;10.184;2023-04-10T01:11:44;102185.72;;;5.92;100.00
16016;BME280;8112;53.592;10.184;2023-04-10T01:16:55;102187.56;;;5.89;100.00
16016;BME280;8112;53.592;10.184;2023-04-10T01:22:00;102189.34;;;5.83;100.00
16016;BME280;8112;53.592;10.184;2023-04-10T01:27:10;102179.75;;;5.85;100.00
16016;BME280;8112;53.592;10.184;2023-04-10T01:32:16;102184.13;;;5.83;100.00
16016;BME280;8112;53.592;10.184;2023-04-10T01:37:22;102184.94;;;5.89;100.00
16016;BME280;8112;53.592;10.184;2023-04-10T01:42:26;102183.16;;;5.91;100.00
16016;BME280;8112;53.592;10.184;2023-04-10T01:47:30;102175.31;;;5.91;100.00
16016;BME280;8112;53.592;10.184;2023-04-10T01:52:33;102164.78;;;5.94;100.00
16016;BME280;8112;53.592;10.184;2023-04-10T01:57:43;102163.00;;;5.94;100.00
16016;BME280;8112;53.592;10.184;2023-04-10T02:02:46;102150.81;;;5.93;100.00
16016;BME280;8112;53.592;10.184;2023-04-10T02:07:53;102155.22;;;5.91;100.00
16016;BME280;8112;53.592;10.184;2023-04-10T02:13:00;102138.69;;;5.91;100.00
16016;BME280;8112;53.592;10.184;2023-04-10T02:18:04;102130.84;;;5.89;100.00
16016;BME280;8112;53.592;10.184;2023-04-10T02:23:08;102132.69;;;5.84;100.00
16016;BME280;8112;53.592;10.184;2023-04-10T02:28:09;102130.94;;;5.83;100.00
16016;BME280;8112;53.592;10.184;2023-04-10T02:33:12;102120.44;;;5.84;100.00
16016;BME280;8112;53.592;10.184;2023-04-10T02:38:14;102123.06;;;5.84;100.00
16016;BME280;8112;53.592;10.184;2023-04-10T02:43:16;102130.06;;;5.82;100.00
16016;BME280;8112;53.592;10.184;2023-04-10T02:48:20;102109.31;;;5.71;100.00
16016;BME280;8112;53.592;10.184;2023-04-10T02:53:27;102124.94;;;5.76;100.00
16016;BME280;8112;53.592;10.184;2023-04-10T02:58:32;102118.91;;;5.73;100.00
16016;BME280;8112;53.592;10.184;2023-04-10T03:03:40;102114.63;;;5.67;100.00
16016;BME280;8112;53.592;10.184;2023-04-10T03:08:42;102100.75;;;5.62;100.00
16016;BME280;8112;53.592;10.184;2023-04-10T03:13:45;102095.59;;;5.59;100.00
16016;BME280;8112;53.592;10.184;2023-04-10T03:18:49;102090.41;;;5.55;100.00
16016;BME280;8112;53.592;10.184;2023-04-10T03:23:51;102084.41;;;5.50;100.00
16016;BME280;8112;53.592;10.184;2023-04-10T03:28:53;102091.38;;;5.48;100.00
16016;BME280;8112;53.592;10.184;2023-04-10T03:33:56;102075.84;;;5.40;100.00
16016;BME280;8112;53.592;10.184;2023-04-10T03:38:58;102075.88;;;5.37;100.00
16016;BME280;8112;53.592;10.184;2023-04-10T03:44:00;102063.72;;;5.35;100.00
16016;BME280;8112;53.592;10.184;2023-04-10T03:49:04;102061.13;;;5.33;100.00
16016;BME280;8112;53.592;10.184;2023-04-10T03:54:07;102062.06;;;5.29;100.00
16016;BME280;8112;53.592;10.184;2023-04-10T03:59:09;102057.78;;;5.25;100.00
16016;BME280;8112;53.592;10.184;2023-04-10T04:04:15;102051.66;;;5.24;100.00
16016;BME280;8112;53.592;10.184;2023-04-10T04:09:36;102051.53;;;5.34;100.00
16016;BME280;8112;53.592;10.184;2023-04-10T04:14:57;102047.19;;;5.33;100.00
16016;BME280;8112;53.592;10.184;2023-04-10T04:20:26;102051.56;;;5.32;100.00
16016;BME280;8112;53.592;10.184;2023-04-10T04:25:46;102049.84;;;5.30;100.00
16016;BME280;8112;53.592;10.184;2023-04-10T04:30:52;102051.63;;;5.27;100.00
16016;BME280;8112;53.592;10.184;2023-04-10T04:36:06;102054.28;;;5.26;100.00
16016;BME280;8112;53.592;10.184;2023-04-10T04:41:28;102059.47;;;5.27;100.00
16016;BME280;8112;53.592;10.184;2023-04-10T04:46:54;102052.50;;;5.26;100.00
16016;BME280;8112;53.592;10.184;2023-04-10T04:52:04;102052.44;;;5.30;100.00
16016;BME280;8112;53.592;10.184;2023-04-10T04:57:28;102050.72;;;5.32;100.00
16016;BME280;8112;53.592;10.184;2023-04-10T05:02:52;102037.59;;;5.33;100.00
16016;BME280;8112;53.592;10.184;2023-04-10T05:08:12;102059.16;;;5.46;100.00
16016;BME280;8112;53.592;10.184;2023-04-10T05:13:29;102054.53;;;5.64;100.00
16016;BME280;8112;53.592;10.184;2023-04-10T05:18:50;102057.81;;;5.75;100.00
16016;BME280;8112;53.592;10.184;2023-04-10T05:24:04;102061.91;;;5.90;100.00
16016;BME280;8112;53.592;10.184;2023-04-10T05:29:13;102046.66;;;6.16;100.00
16016;BME280;8112;53.592;10.184;2023-04-10T05:34:42;102047.78;;;6.48;100.00
16016;BME280;8112;53.592;10.184;2023-04-10T05:40:04;102048.78;;;6.83;100.00
16016;BME280;8112;53.592;10.184;2023-04-10T05:45:11;102045.38;;;7.17;100.00
16016;BME280;8112;53.592;10.184;2023-04-10T05:50:33;102033.19;;;7.52;100.00
16016;BME280;8112;53.592;10.184;2023-04-10T05:55:55;102026.38;;;7.78;100.00
16016;BME280;8112;53.592;10.184;2023-04-10T06:01:15;102020.53;;;8.00;100.00
16016;BME280;8112;53.592;10.184;2023-04-10T06:06:26;102025.69;;;8.03;100.00
16016;BME280;8112;53.592;10.184;2023-04-10T06:11:31;102013.97;;;7.83;100.00
16016;BME280;8112;53.592;10.184;2023-04-10T06:16:34;102007.78;;;7.88;100.00
16016;BME280;8112;53.592;10.184;2023-04-10T06:21:36;102002.59;;;7.84;100.00
16016;BME280;8112;53.592;10.184;2023-04-10T06:26:39;101987.59;;;7.90;100.00
16016;BME280;8112;53.592;10.184;2023-04-10T06:31:40;101981.25;;;7.97;100.00
16016;BME280;8112;53.592;10.184;2023-04-10T06:36:42;101970.88;;;8.24;100.00
16016;BME280;8112;53.592;10.184;2023-04-10T06:41:46;101968.34;;;8.49;100.00
16016;BME280;8112;53.592;10.184;2023-04-10T06:47:01;101966.63;;;8.78;100.00
16016;BME280;8112;53.592;10.184;2023-04-10T06:52:03;101954.06;;;8.88;100.00
16016;BME280;8112;53.592;10.184;2023-04-10T06:57:06;101947.53;;;9.00;100.00
16016;BME280;8112;53.592;10.184;2023-04-10T07:02:07;101943.44;;;9.18;100.00
16016;BME280;8112;53.592;10.184;2023-04-10T07:07:09;101938.34;;;9.39;100.00
16016;BME280;8112;53.592;10.184;2023-04-10T07:12:14;101941.94;;;9.62;100.00
16016;BME280;8112;53.592;10.184;2023-04-10T07:17:15;101937.06;;;10.00;100.00
16016;BME280;8112;53.592;10.184;2023-04-10T07:22:17;101939.91;;;10.41;100.00
16016;BME280;8112;53.592;10.184;2023-04-10T07:27:20;101926.88;;;10.61;100.00
16016;BME280;8112;53.592;10.184;2023-04-10T07:32:24;101932.50;;;10.74;100.00
16016;BME280;8112;53.592;10.184;2023-04-10T07:37:26;101930.34;;;10.83;100.00
16016;BME280;8112;53.592;10.184;2023-04-10T07:42:29;101918.31;;;10.98;100.00
16016;BME280;8112;53.592;10.184;2023-04-10T07:47:30;101920.41;;;11.11;100.00
16016;BME280;8112;53.592;10.184;2023-04-10T07:52:32;101909.63;;;11.38;100.00
16016;BME280;8112;53.592;10.184;2023-04-10T07:57:36;101913.75;;;11.64;100.00
16016;BME280;8112;53.592;10.184;2023-04-10T08:02:37;101903.06;;;11.87;100.00
16016;BME280;8112;53.592;10.184;2023-04-10T08:07:40;101903.31;;;12.20;100.00
16016;BME280;8112;53.592;10.184;2023-04-10T08:12:43;101902.66;;;12.34;100.00
16016;BME280;8112;53.592;10.184;2023-04-10T08:17:44;101882.63;;;12.48;100.00
16016;BME280;8112;53.592;10.184;2023-04-10T08:22:46;101879.78;;;12.88;100.00
16016;BME280;8112;53.592;10.184;2023-04-10T08:27:49;101871.59;;;13.28;100.00
16016;BME280;8112;53.592;10.184;2023-04-10T08:32:51;101864.94;;;13.36;100.00
16016;BME280;8112;53.592;10.184;2023-04-10T08:37:52;101865.38;;;13.62;100.00
16016;BME280;8112;53.592;10.184;2023-04-10T08:42:56;101856.19;;;14.02;100.00
16016;BME280;8112;53.592;10.184;2023-04-10T08:47:59;101856.34;;;14.15;100.00
16016;BME280;8112;53.592;10.184;2023-04-10T08:53:07;101851.16;;;13.97;100.00
16016;BME280;8112;53.592;10.184;2023-04-10T08:58:12;101833.94;;;14.04;100.00
16016;BME280;8112;53.592;10.184;2023-04-10T09:03:15;101833.63;;;14.10;100.00
16016;BME280;8112;53.592;10.184;2023-04-10T09:08:17;101827.75;;;14.36;100.00
16016;BME280;8112;53.592;10.184;2023-04-10T09:13:35;101814.22;;;14.57;100.00
16016;BME280;8112;53.592;10.184;2023-04-10T09:18:45;101817.22;;;14.81;100.00
16016;BME280;8112;53.592;10.184;2023-04-10T09:23:48;101804.34;;;14.89;100.00
16016;BME280;8112;53.592;10.184;2023-04-10T09:29:02;101798.94;;;15.05;100.00
16016;BME280;8112;53.592;10.184;2023-04-10T09:34:10;101791.16;;;15.46;100.00
16016;BME280;8112;53.592;10.184;2023-04-10T09:39:12;101771.09;;;15.69;100.00
16016;BME280;8112;53.592;10.184;2023-04-10T09:44:16;101757.88;;;15.82;100.00
16016;BME280;8112;53.592;10.184;2023-04-10T09:49:19;101744.44;;;15.71;100.00
16016;BME280;8112;53.592;10.184;2023-04-10T09:54:34;101720.50;;;16.13;100.00
16016;BME280;8112;53.592;10.184;2023-04-10T09:59:39;101719.34;;;16.30;100.00
16016;BME280;8112;53.592;10.184;2023-04-10T10:04:44;101697.66;;;15.95;100.00
16016;BME280;8112;53.592;10.184;2023-04-10T10:09:47;101691.34;;;16.24;100.00
16016;BME280;8112;53.592;10.184;2023-04-10T10:14:56;101675.41;;;16.63;100.00
16016;BME280;8112;53.592;10.184;2023-04-10T10:20:03;101667.72;;;16.58;97.65
16016;BME280;8112;53.592;10.184;2023-04-10T10:25:06;101658.69;;;16.74;96.45
16016;BME280;8112;53.592;10.184;2023-04-10T10:30:11;101663.72;;;16.65;93.75
16016;BME280;8112;53.592;10.184;2023-04-10T10:35:14;101643.22;;;16.79;89.87
16016;BME280;8112;53.592;10.184;2023-04-10T10:40:20;101634.66;;;17.37;93.12
16016;BME280;8112;53.592;10.184;2023-04-10T10:45:30;101623.91;;;17.74;90.03
16016;BME280;8112;53.592;10.184;2023-04-10T10:50:53;101615.09;;;18.21;81.11
16016;BME280;8112;53.592;10.184;2023-04-10T10:55:56;101600.81;;;18.68;76.97
16016;BME280;8112;53.592;10.184;2023-04-10T11:01:06;101585.50;;;19.04;71.70
16016;BME280;8112;53.592;10.184;2023-04-10T11:06:10;101571.81;;;19.51;67.57
16016;BME280;8112;53.592;10.184;2023-04-10T11:11:16;101562.97;;;19.39;64.88
16016;BME280;8112;53.592;10.184;2023-04-10T11:16:21;101553.06;;;18.97;66.02
16016;BME280;8112;53.592;10.184;2023-04-10T11:21:24;101541.25;;;19.65;66.08
16016;BME280;8112;53.592;10.184;2023-04-10T11:26:36;101538.19;;;20.22;62.90
16016;BME280;8112;53.592;10.184;2023-04-10T11:31:40;101522.31;;;20.81;60.13
16016;BME280;8112;53.592;10.184;2023-04-10T11:36:42;101505.13;;;21.23;57.66
16016;BME280;8112;53.592;10.184;2023-04-10T11:41:45;101497.19;;;21.51;56.09
16016;BME280;8112;53.592;10.184;2023-04-10T11:46:49;101490.81;;;21.62;56.64
16016;BME280;8112;53.592;10.184;2023-04-10T11:51:51;101479.16;;;21.43;53.55
16016;BME280;8112;53.592;10.184;2023-04-10T11:56:58;101471.44;;;22.16;49.94
16016;BME280;8112;53.592;10.184;2023-04-10T12:02:06;101472.31;;;22.06;49.94
16016;BME280;8112;53.592;10.184;2023-04-10T12:07:09;101461.28;;;22.38;49.30
16016;BME280;8112;53.592;10.184;2023-04-10T12:12:10;101453.13;;;22.57;46.48
16016;BME280;8112;53.592;10.184;2023-04-10T12:17:15;101441.09;;;22.33;45.63
16016;BME280;8112;53.592;10.184;2023-04-10T12:22:17;101433.63;;;22.27;45.90
16016;BME280;8112;53.592;10.184;2023-04-10T12:27:20;101418.94;;;22.86;44.55
16016;BME280;8112;53.592;10.184;2023-04-10T12:32:24;101409.72;;;22.34;43.86
16016;BME280;8112;53.592;10.184;2023-04-10T12:37:45;101407.72;;;21.52;44.23
16016;BME280;8112;53.592;10.184;2023-04-10T12:42:47;101416.59;;;21.53;44.20
16016;BME280;8112;53.592;10.184;2023-04-10T12:47:50;101399.81;;;21.50;43.73
16016;BME280;8112;53.592;10.184;2023-04-10T12:53:01;101389.97;;;21.41;44.97
16016;BME280;8112;53.592;10.184;2023-04-10T12:58:14;101379.22;;;20.84;44.55
16016;BME280;8112;53.592;10.184;2023-04-10T13:03:19;101372.00;;;20.74;43.38
16016;BME280;8112;53.592;10.184;2023-04-10T13:08:21;101364.25;;;21.01;45.01
16016;BME280;8112;53.592;10.184;2023-04-10T13:13:22;101358.44;;;21.15;45.24
16016;BME280;8112;53.592;10.184;2023-04-10T13:18:26;101333.25;;;21.36;45.71
16016;BME280;8112;53.592;10.184;2023-04-10T13:23:27;101329.66;;;21.17;44.10
16016;BME280;8112;53.592;10.184;2023-04-10T13:28:29;101313.81;;;20.37;46.34
16016;BME280;8112;53.592;10.184;2023-04-10T13:33:32;101306.94;;;20.54;46.57
16016;BME280;8112;53.592;10.184;2023-04-10T13:38:34;101300.59;;;20.16;44.78
16016;BME280;8112;53.592;10.184;2023-04-10T13:43:36;101280.44;;;20.12;47.16
16016;BME280;8112;53.592;10.184;2023-04-10T13:48:39;101274.91;;;19.33;47.52
16016;BME280;8112;53.592;10.184;2023-04-10T13:53:41;101264.63;;;18.97;49.43
16016;BME280;8112;53.592;10.184;2023-04-10T13:58:44;101243.25;;;18.97;49.84
16016;BME280;8112;53.592;10.184;2023-04-10T14:03:47;101236.72;;;18.90;49.80
16016;BME280;8112;53.592;10.184;2023-04-10T14:08:49;101226.28;;;18.77;50.60
16016;BME280;8112;53.592;10.184;2023-04-10T14:13:51;101211.31;;;18.64;52.25
16016;BME280;8112;53.592;10.184;2023-04-10T14:18:54;101201.44;;;18.55;51.97
16016;BME280;8112;53.592;10.184;2023-04-10T14:23:55;101187.31;;;18.43;54.19
16016;BME280;8112;53.592;10.184;2023-04-10T14:28:59;101167.28;;;18.28;55.23
16016;BME280;8112;53.592;10.184;2023-04-10T14:34:02;101163.63;;;18.29;56.35
16016;BME280;8112;53.592;10.184;2023-04-10T14:39:03;101154.72;;;18.40;57.54
16016;BME280;8112;53.592;10.184;2023-04-10T14:44:05;101153.94;;;18.49;57.81
16016;BME280;8112;53.592;10.184;2023-04-10T14:49:08;101138.63;;;18.51;60.72
16016;BME280;8112;53.592;10.184;2023-04-10T14:54:10;101114.31;;;18.85;59.82
16016;BME280;8112;53.592;10.184;2023-04-10T14:59:12;101106.25;;;18.75;59.77
16016;BME280;8112;53.592;10.184;2023-04-10T15:04:15;101098.16;;;18.87;59.21
16016;BME280;8112;53.592;10.184;2023-04-10T15:09:17;101083.69;;;18.89;59.64
16016;BME280;8112;53.592;10.184;2023-04-10T15:14:18;101064.78;;;19.32;58.92
16016;BME280;8112;53.592;10.184;2023-04-10T15:19:21;101054.75;;;18.94;61.47
16016;BME280;8112;53.592;10.184;2023-04-10T15:24:23;101041.41;;;18.94;62.37
16016;BME280;8112;53.592;10.184;2023-04-10T15:29:25;101032.03;;;18.59;63.57
16016;BME280;8112;53.592;10.184;2023-04-10T15:34:28;101034.03;;;18.26;63.53
16016;BME280;8112;53.592;10.184;2023-04-10T15:39:30;101018.72;;;18.28;64.69
16016;BME280;8112;53.592;10.184;2023-04-10T15:44:31;101013.16;;;18.31;65.37
16016;BME280;8112;53.592;10.184;2023-04-10T15:49:34;100990.06;;;18.20;63.17
16016;BME280;8112;53.592;10.184;2023-04-10T15:54:37;100977.00;;;18.78;61.16
16016;BME280;8112;53.592;10.184;2023-04-10T15:59:39;100958.19;;;18.89;60.74
16016;BME280;8112;53.592;10.184;2023-04-10T16:04:43;100960.97;;;18.68;60.93
16016;BME280;8112;53.592;10.184;2023-04-10T16:09:45;100942.69;;;18.54;61.30
16016;BME280;8112;53.592;10.184;2023-04-10T16:14:47;100941.13;;;18.00;64.54
16016;BME280;8112;53.592;10.184;2023-04-10T16:19:50;100939.50;;;17.14;68.08
16016;BME280;8112;53.592;10.184;2023-04-10T16:24:54;100926.81;;;16.74;74.26
16016;BME280;8112;53.592;10.184;2023-04-10T16:29:55;100912.16;;;16.47;79.88
16016;BME280;8112;53.592;10.184;2023-04-10T16:34:59;100913.09;;;16.46;81.67
16016;BME280;8112;53.592;10.184;2023-04-10T16:40:00;100904.81;;;16.39;85.25
16016;BME280;8112;53.592;10.184;2023-04-10T16:45:03;100888.66;;;16.08;87.80
16016;BME280;8112;53.592;10.184;2023-04-10T16:50:07;100883.94;;;15.89;87.80
16016;BME280;8112;53.592;10.184;2023-04-10T16:55:09;100877.66;;;15.67;91.56
16016;BME280;8112;53.592;10.184;2023-04-10T17:00:12;100867.41;;;15.51;93.94
16016;BME280;8112;53.592;10.184;2023-04-10T17:05:15;100846.38;;;15.36;96.09
16016;BME280;8112;53.592;10.184;2023-04-10T17:10:17;100843.81;;;15.23;97.66
16016;BME280;8112;53.592;10.184;2023-04-10T17:15:19;100838.88;;;15.19;98.44
16016;BME280;8112;53.592;10.184;2023-04-10T17:20:22;100818.13;;;15.13;100.00
16016;BME280;8112;53.592;10.184;2023-04-10T17:25:24;100804.56;;;15.04;100.00
16016;BME280;8112;53.592;10.184;2023-04-10T17:30:26;100805.75;;;14.89;100.00
16016;BME280;8112;53.592;10.184;2023-04-10T17:35:29;100817.69;;;14.83;100.00
16016;BME280;8112;53.592;10.184;2023-04-10T17:40:30;100806.22;;;14.82;100.00
16016;BME280;8112;53.592;10.184;2023-04-10T17:45:35;100795.69;;;14.70;100.00
16016;BME280;8112;53.592;10.184;2023-04-10T17:50:38;100807.50;;;14.65;100.00
16016;BME280;8112;53.592;10.184;2023-04-10T17:55:39;100797.84;;;14.64;100.00
16016;BME280;8112;53.592;10.184;2023-04-10T18:00:41;100785.34;;;14.53;100.00
16016;BME280;8112;53.592;10.184;2023-04-10T18:05:45;100795.09;;;14.42;100.00
16016;BME280;8112;53.592;10.184;2023-04-10T18:10:46;100770.47;;;14.28;100.00
16016;BME280;8112;53.592;10.184;2023-04-10T18:15:48;100770.19;;;14.20;100.00
16016;BME280;8112;53.592;10.184;2023-04-10T18:20:51;100766.91;;;14.16;100.00
16016;BME280;8112;53.592;10.184;2023-04-10T18:25:53;100768.31;;;14.09;100.00
16016;BME280;8112;53.592;10.184;2023-04-10T18:30:55;100766.72;;;14.06;100.00
16016;BME280;8112;53.592;10.184;2023-04-10T18:35:58;100758.28;;;14.01;100.00
16016;BME280;8112;53.592;10.184;2023-04-10T18:41:00;100759.34;;;13.99;100.00
16016;BME280;8112;53.592;10.184;2023-04-10T18:46:02;100756.31;;;13.92;100.00
16016;BME280;8112;53.592;10.184;2023-04-10T18:51:05;100744.53;;;13.96;100.00
16016;BME280;8112;53.592;10.184;2023-04-10T18:56:07;100741.16;;;13.94;100.00
16016;BME280;8112;53.592;10.184;2023-04-10T19:01:09;100738.38;;;13.95;100.00
16016;BME280;8112;53.592;10.184;2023-04-10T19:06:13;100722.84;;;13.91;100.00
16016;BME280;8112;53.592;10.184;2023-04-10T19:11:14;100720.63;;;13.85;100.00
16016;BME280;8112;53.592;10.184;2023-04-10T19:16:17;100708.56;;;13.80;100.00
16016;BME280;8112;53.592;10.184;2023-04-10T19:21:21;100693.41;;;13.82;100.00
16016;BME280;8112;53.592;10.184;2023-04-10T19:26:22;100695.78;;;13.74;100.00
16016;BME280;8112;53.592;10.184;2023-04-10T19:31:24;100686.34;;;13.70;100.00
16016;BME280;8112;53.592;10.184;2023-04-10T19:36:28;100689.88;;;13.71;100.00
16016;BME280;8112;53.592;10.184;2023-04-10T19:41:30;100666.09;;;13.82;100.00
16016;BME280;8112;53.592;10.184;2023-04-10T19:46:32;100664.97;;;13.73;100.00
16016;BME280;8112;53.592;10.184;2023-04-10T19:51:35;100652.16;;;13.67;100.00
16016;BME280;8112;53.592;10.184;2023-04-10T19:56:37;100663.25;;;13.72;100.00
16016;BME280;8112;53.592;10.184;2023-04-10T20:01:38;100633.63;;;13.67;100.00
16016;BME280;8112;53.592;10.184;2023-04-10T20:06:41;100627.72;;;13.63;100.00
16016;BME280;8112;53.592;10.184;2023-04-10T20:11:43;100615.38;;;13.51;100.00
16016;BME280;8112;53.592;10.184;2023-04-10T20:16:45;100612.03;;;13.60;100.00
16016;BME280;8112;53.592;10.184;2023-04-10T20:21:48;100609.00;;;13.53;100.00
16016;BME280;8112;53.592;10.184;2023-04-10T20:26:49;100585.69;;;13.59;100.00
16016;BME280;8112;53.592;10.184;2023-04-10T20:31:51;100575.34;;;13.56;100.00
16016;BME280;8112;53.592;10.184;2023-04-10T20:36:54;100546.31;;;13.54;100.00
16016;BME280;8112;53.592;10.184;2023-04-10T20:41:56;100533.19;;;13.52;100.00
16016;BME280;8112;53.592;10.184;2023-04-10T20:46:57;100532.47;;;13.50;100.00
16016;BME280;8112;53.592;10.184;2023-04-10T20:52:01;100503.25;;;13.52;100.00
16016;BME280;8112;53.592;10.184;2023-04-10T20:57:03;100505.72;;;13.42;100.00
16016;BME280;8112;53.592;10.184;2023-04-10T21:02:05;100495.13;;;13.42;100.00
16016;BME280;8112;53.592;10.184;2023-04-10T21:07:08;100481.25;;;13.38;100.00
16016;BME280;8112;53.592;10.184;2023-04-10T21:12:10;100468.38;;;13.34;100.00
16016;BME280;8112;53.592;10.184;2023-04-10T21:17:12;100455.59;;;13.28;100.00
16016;BME280;8112;53.592;10.184;2023-04-10T21:22:15;100436.47;;;13.24;100.00
16016;BME280;8112;53.592;10.184;2023-04-10T21:27:17;100430.09;;;13.26;100.00
16016;BME280;8112;53.592;10.184;2023-04-10T21:32:18;100423.97;;;13.26;100.00
16016;BME280;8112;53.592;10.184;2023-04-10T21:37:22;100427.22;;;13.30;100.00
16016;BME280;8112;53.592;10.184;2023-04-10T21:42:24;100445.47;;;13.46;100.00
16016;BME280;8112;53.592;10.184;2023-04-10T21:47:25;100441.69;;;13.37;100.00
16016;BME280;8112;53.592;10.184;2023-04-10T21:52:28;100441.25;;;13.43;100.00
16016;BME280;8112;53.592;10.184;2023-04-10T21:57:30;100454.97;;;13.48;100.00
16016;BME280;8112;53.592;10.184;2023-04-10T22:02:32;100462.09;;;13.23;100.00
16016;BME280;8112;53.592;10.184;2023-04-10T22:07:35;100460.03;;;12.91;100.00
16016;BME280;8112;53.592;10.184;2023-04-10T22:12:36;100459.59;;;12.60;100.00
16016;BME280;8112;53.592;10.184;2023-04-10T22:17:38;100458.94;;;12.32;100.00
16016;BME280;8112;53.592;10.184;2023-04-10T22:22:41;100462.16;;;11.98;100.00
16016;BME280;8112;53.592;10.184;2023-04-10T22:27:43;100474.03;;;11.52;100.00
16016;BME280;8112;53.592;10.184;2023-04-10T22:32:45;100481.81;;;11.28;100.00
16016;BME280;8112;53.592;10.184;2023-04-10T22:37:48;100484.59;;;10.84;100.00
16016;BME280;8112;53.592;10.184;2023-04-10T22:42:49;100458.94;;;10.59;100.00
16016;BME280;8112;53.592;10.184;2023-04-10T22:47:51;100462.16;;;10.35;100.00
16016;BME280;8112;53.592;10.184;2023-04-10T22:52:54;100457.38;;;10.27;100.00
16016;BME280;8112;53.592;10.184;2023-04-10T22:57:56;100465.28;;;10.27;100.00
16016;BME280;8112;53.592;10.184;2023-04-10T23:02:57;100449.00;;;10.21;100.00
16016;BME280;8112;53.592;10.184;2023-04-10T23:08:01;100434.53;;;10.13;100.00
16016;BME280;8112;53.592;10.184;2023-04-10T23:13:02;100436.50;;;10.10;100.00
16016;BME280;8112;53.592;10.184;2023-04-10T23:18:04;100437.09;;;10.01;100.00
16016;BME280;8112;53.592;10.184;2023-04-10T23:23:07;100420.84;;;9.94;100.00
16016;BME280;8112;53.592;10.184;2023-04-10T23:28:09;100423.06;;;9.86;100.00
16016;BME280;8112;53.592;10.184;2023-04-10T23:33:11;100389.63;;;9.73;100.00
16016;BME280;8112;53.592;10.184;2023-04-10T23:38:14;100385.31;;;9.72;100.00
16016;BME280;8112;53.592;10.184;2023-04-10T23:43:16;100373.84;;;9.73;100.00
16016;BME280;8112;53.592;10.184;2023-04-10T23:48:17;100366.59;;;9.77;100.00
16016;BME280;8112;53.592;10.184;2023-04-10T23:53:20;100362.72;;;9.68;100.00
16016;BME280;8112;53.592;10.184;2023-04-10T23:58:22;100364.63;;;9.66;100.00
